createdAt,value
2022-08-30T00:01:34.289Z,2.30
2022-08-30T00:04:02.899Z,2.20
2022-08-30T00:06:31.185Z,2.63
2022-08-30T00:08:59.875Z,2.30
2022-08-30T00:11:30.220Z,2.20
2022-08-30T00:13:58.964Z,2.50
2022-08-30T00:16:27.789Z,2.67
2022-08-30T00:18:56.212Z,2.30
2022-08-30T00:21:24.654Z,2.40
2022-08-30T00:23:52.498Z,2.30
2022-08-30T00:26:20.538Z,2.42
2022-08-30T00:28:49.634Z,1.95
2022-08-30T00:31:17.441Z,2.20
2022-08-30T00:33:45.276Z,2.85
2022-08-30T00:36:13.054Z,2.40
2022-08-30T00:38:40.859Z,2.63
2022-08-30T00:41:09.079Z,2.45
2022-08-30T00:43:37.260Z,2.58
2022-08-30T00:46:08.619Z,2.53
2022-08-30T00:48:40.975Z,2.37
2022-08-30T00:51:11.375Z,2.63
2022-08-30T00:53:43.627Z,2.40
2022-08-30T00:56:12.334Z,2.30
2022-08-30T00:58:47.145Z,2.72
2022-08-30T01:01:17.174Z,2.55
2022-08-30T01:03:46.421Z,2.50
2022-08-30T01:06:16.068Z,2.53
2022-08-30T01:08:43.984Z,2.63
2022-08-30T01:11:12.955Z,2.63
2022-08-30T01:13:41.225Z,2.50
2022-08-30T01:16:09.647Z,2.83
2022-08-30T01:18:39.540Z,2.80
2022-08-30T01:21:16.329Z,2.95
2022-08-30T01:23:47.990Z,2.90
2022-08-30T01:26:17.536Z,3.00
2022-08-30T01:28:51.562Z,2.80
2022-08-30T01:31:19.616Z,2.72
2022-08-30T01:33:47.570Z,3.00
2022-08-30T01:36:17.322Z,2.67
2022-08-30T01:38:50.840Z,2.63
2022-08-30T01:41:22.149Z,2.80
2022-08-30T01:43:51.326Z,3.08
2022-08-30T01:46:21.065Z,2.92
2022-08-30T01:48:50.337Z,3.75
2022-08-30T01:51:23.503Z,2.83
2022-08-30T01:53:53.074Z,3.00
2022-08-30T01:56:21.951Z,3.20
2022-08-30T01:58:49.739Z,3.28
2022-08-30T02:01:20.408Z,2.75
2022-08-30T02:03:49.102Z,3.13
2022-08-30T02:06:19.955Z,3.08
2022-08-30T02:08:48.471Z,2.95
2022-08-30T02:11:18.312Z,3.60
2022-08-30T02:13:47.504Z,2.80
2022-08-30T02:16:18.857Z,2.92
2022-08-30T02:18:46.792Z,3.58
2022-08-30T02:21:15.104Z,3.97
2022-08-30T02:23:44.033Z,4.10
2022-08-30T02:26:13.562Z,3.75
2022-08-30T02:28:49.682Z,3.55
2022-08-30T02:31:20.428Z,4.20
2022-08-30T02:33:50.154Z,4.70
2022-08-30T02:36:18.433Z,4.25
2022-08-30T02:38:46.276Z,4.35
2022-08-30T02:41:14.385Z,4.45
2022-08-30T02:43:43.504Z,4.30
2022-08-30T02:46:11.640Z,4.00
2022-08-30T02:48:39.527Z,4.32
2022-08-30T02:51:10.578Z,4.15
2022-08-30T02:53:39.808Z,4.32
2022-08-30T02:56:08.263Z,3.92
2022-08-30T02:58:36.722Z,3.83
2022-08-30T03:01:06.239Z,3.90
2022-08-30T03:03:34.210Z,4.13
2022-08-30T03:06:03.278Z,3.85
2022-08-30T03:08:31.144Z,3.55
2022-08-30T03:10:58.949Z,3.80
2022-08-30T03:13:26.836Z,3.55
2022-08-30T03:15:54.747Z,3.80
2022-08-30T03:18:24.833Z,3.70
2022-08-30T03:20:54.001Z,3.90
2022-08-30T03:23:22.345Z,3.38
2022-08-30T03:25:50.115Z,3.67
2022-08-30T03:28:18.504Z,3.47
2022-08-30T03:30:47.737Z,3.90
2022-08-30T03:33:15.822Z,3.45
2022-08-30T03:35:48.075Z,3.35
2022-08-30T03:38:15.891Z,3.50
2022-08-30T03:40:44.791Z,3.70
2022-08-30T03:43:12.772Z,3.28
2022-08-30T03:45:41.055Z,3.15
2022-08-30T03:48:09.075Z,3.38
2022-08-30T03:50:37.102Z,3.00
2022-08-30T03:53:06.666Z,3.30
2022-08-30T03:55:35.074Z,3.40
2022-08-30T03:58:03.222Z,3.45
2022-08-30T04:00:31.346Z,3.40
2022-08-30T04:02:59.411Z,3.25
2022-08-30T04:05:28.367Z,3.25
2022-08-30T04:07:56.454Z,2.97
2022-08-30T04:10:26.652Z,3.78
2022-08-30T04:12:54.741Z,3.58
2022-08-30T04:15:22.794Z,3.53
2022-08-30T04:17:51.173Z,3.55
2022-08-30T04:20:19.343Z,3.67
2022-08-30T04:22:47.626Z,4.03
2022-08-30T04:25:16.104Z,3.20
2022-08-30T04:27:46.527Z,3.92
2022-08-30T04:30:16.144Z,3.42
2022-08-30T04:32:44.533Z,4.05
2022-08-30T04:35:13.557Z,4.40
2022-08-30T04:37:41.861Z,5.43
2022-08-30T04:40:11.192Z,5.47
2022-08-30T04:42:39.549Z,4.40
2022-08-30T04:45:11.991Z,3.72
2022-08-30T04:47:40.265Z,4.65
2022-08-30T04:50:09.014Z,4.65
2022-08-30T04:52:37.118Z,3.90
2022-08-30T04:55:06.386Z,4.00
2022-08-30T04:57:34.664Z,3.38
2022-08-30T05:00:02.808Z,4.20
2022-08-30T05:02:32.346Z,3.90
2022-08-30T05:05:17.707Z,3.85
2022-08-30T05:07:45.706Z,4.25
2022-08-30T05:10:13.842Z,3.72
2022-08-30T05:12:43.461Z,4.55
2022-08-30T05:15:13.141Z,3.85
2022-08-30T05:17:42.952Z,4.20
2022-08-30T05:20:12.805Z,4.20
2022-08-30T05:22:42.305Z,4.00
2022-08-30T05:25:10.649Z,3.67
2022-08-30T05:27:42.829Z,4.00
2022-08-30T05:30:12.671Z,3.78
2022-08-30T05:32:42.462Z,3.63
2022-08-30T05:35:13.571Z,4.13
2022-08-30T05:37:41.628Z,3.65
2022-08-30T05:40:12.196Z,4.13
2022-08-30T05:42:41.482Z,3.60
2022-08-30T05:45:10.989Z,3.55
2022-08-30T05:47:39.521Z,3.50
2022-08-30T05:50:10.142Z,4.00
2022-08-30T05:52:38.941Z,4.00
2022-08-30T05:55:08.102Z,3.85
2022-08-30T05:57:37.744Z,4.03
2022-08-30T06:00:12.512Z,3.95
2022-08-30T06:02:40.610Z,3.80
2022-08-30T06:05:10.934Z,3.83
2022-08-30T06:07:42.399Z,3.40
2022-08-30T06:10:12.309Z,3.63
2022-08-30T06:12:40.253Z,3.30
2022-08-30T06:15:09.465Z,3.42
2022-08-30T06:17:39.570Z,3.10
2022-08-30T06:20:10.253Z,2.88
2022-08-30T06:22:38.916Z,3.10
2022-08-30T06:25:07.539Z,2.70
2022-08-30T06:27:35.368Z,2.60
2022-08-30T06:30:03.274Z,2.55
2022-08-30T06:32:31.109Z,2.67
2022-08-30T06:34:58.916Z,3.00
2022-08-30T06:37:30.122Z,2.85
2022-08-30T06:39:58.634Z,2.90
2022-08-30T06:42:31.682Z,3.25
2022-08-30T06:44:59.713Z,2.75
2022-08-30T06:47:27.490Z,2.42
2022-08-30T06:49:55.351Z,2.80
2022-08-30T06:52:23.338Z,2.70
2022-08-30T06:54:53.278Z,3.45
2022-08-30T06:57:21.075Z,2.88
2022-08-30T06:59:48.880Z,2.83
2022-08-30T07:02:16.922Z,2.90
2022-08-30T07:04:44.661Z,3.35
2022-08-30T07:07:12.813Z,2.67
2022-08-30T07:09:43.310Z,3.10
2022-08-30T07:12:13.245Z,3.10
2022-08-30T07:14:41.418Z,2.90
2022-08-30T07:17:23.800Z,3.05
2022-08-30T07:19:51.903Z,2.55
2022-08-30T07:22:19.745Z,2.72
2022-08-30T07:24:48.068Z,2.90
2022-08-30T07:27:17.546Z,3.20
2022-08-30T07:29:45.606Z,3.65
2022-08-30T07:32:13.636Z,2.95
2022-08-30T07:34:41.703Z,2.88
2022-08-30T07:37:09.737Z,2.80
2022-08-30T07:39:47.743Z,2.92
2022-08-30T07:42:17.186Z,2.97
2022-08-30T07:44:45.339Z,3.50
2022-08-30T07:47:13.530Z,3.10
2022-08-30T07:49:41.335Z,3.40
2022-08-30T07:52:09.500Z,2.88
2022-08-30T07:54:37.445Z,2.92
2022-08-30T07:57:05.594Z,3.10
2022-08-30T07:59:36.187Z,2.90
2022-08-30T08:02:04.696Z,2.97
2022-08-30T08:04:33.210Z,2.85
2022-08-30T08:07:01.232Z,3.22
2022-08-30T08:09:29.100Z,2.80
2022-08-30T08:11:57.111Z,2.67
2022-08-30T08:14:24.890Z,2.92
2022-08-30T08:16:54.498Z,2.92
2022-08-30T08:19:22.286Z,3.20
2022-08-30T08:21:59.383Z,3.58
2022-08-30T08:24:38.199Z,3.75
2022-08-30T08:27:06.400Z,3.38
2022-08-30T08:29:34.466Z,3.53
2022-08-30T08:32:04.013Z,2.85
2022-08-30T08:34:31.927Z,2.97
2022-08-30T08:36:59.750Z,4.35
2022-08-30T08:39:27.533Z,3.13
2022-08-30T08:42:04.195Z,3.30
2022-08-30T08:47:22.493Z,2.85
2022-08-30T08:49:54.228Z,3.13
2022-08-30T08:52:51.012Z,3.22
2022-08-30T08:55:23.389Z,3.05
2022-08-30T08:57:52.414Z,3.55
2022-08-30T09:00:20.745Z,2.75
2022-08-30T09:02:58.452Z,2.88
2022-08-30T09:05:30.426Z,3.00
2022-08-30T09:08:04.581Z,3.33
2022-08-30T09:10:50.052Z,3.10
2022-08-30T09:13:19.051Z,3.20
2022-08-30T09:15:49.920Z,2.80
2022-08-30T09:18:42.753Z,3.28
2022-08-30T09:21:14.938Z,3.30
2022-08-30T09:23:50.845Z,2.92
2022-08-30T09:26:31.764Z,3.40
2022-08-30T09:29:01.030Z,3.00
2022-08-30T09:31:30.688Z,2.72
2022-08-30T09:34:05.246Z,2.78
2022-08-30T09:36:36.531Z,3.30
2022-08-30T09:39:07.187Z,3.13
2022-08-30T09:41:42.557Z,3.10
2022-08-30T09:44:17.653Z,2.83
2022-08-30T09:46:48.272Z,3.10
2022-08-30T09:49:38.806Z,2.90
2022-08-30T09:52:19.471Z,3.05
2022-08-30T09:55:03.287Z,3.05
2022-08-30T09:57:39.067Z,3.20
2022-08-30T10:00:09.786Z,2.65
2022-08-30T10:02:58.780Z,2.75
2022-08-30T10:05:33.553Z,2.95
2022-08-30T10:08:12.563Z,3.30
2022-08-30T10:10:48.591Z,2.92
2022-08-30T10:13:42.991Z,3.20
2022-08-30T10:16:22.793Z,3.25
2022-08-30T10:19:04.299Z,3.30
2022-08-30T10:21:41.506Z,2.92
2022-08-30T10:24:14.079Z,3.25
2022-08-30T10:26:53.786Z,3.20
2022-08-30T10:29:26.371Z,3.20
2022-08-30T10:31:59.693Z,3.20
2022-08-30T10:34:34.003Z,3.05
2022-08-30T10:37:08.144Z,3.25
2022-08-30T10:39:42.260Z,2.90
2022-08-30T10:42:16.433Z,3.47
2022-08-30T10:44:49.857Z,3.22
2022-08-30T10:47:26.822Z,3.17
2022-08-30T10:50:04.060Z,3.05
2022-08-30T10:52:37.566Z,2.67
2022-08-30T10:55:10.833Z,3.05
2022-08-30T10:57:43.502Z,3.75
2022-08-30T11:00:14.879Z,3.25
2022-08-30T11:03:10.556Z,3.28
2022-08-30T11:06:01.292Z,3.38
2022-08-30T11:08:47.813Z,3.22
2022-08-30T11:11:26.797Z,3.25
2022-08-30T11:13:57.515Z,2.85
2022-08-30T11:16:37.862Z,3.22
2022-08-30T11:19:17.001Z,2.97
2022-08-30T11:21:47.761Z,3.33
2022-08-30T11:24:20.963Z,3.17
2022-08-30T11:26:58.762Z,3.25
2022-08-30T11:29:36.914Z,3.60
2022-08-30T11:32:23.991Z,3.65
2022-08-30T11:35:00.553Z,3.28
2022-08-30T11:37:37.124Z,3.42
2022-08-30T11:40:14.260Z,3.53
2022-08-30T11:42:48.410Z,3.13
2022-08-30T11:45:46.985Z,3.40
2022-08-30T11:48:54.424Z,3.20
2022-08-30T11:52:26.305Z,3.15
2022-08-30T11:55:00.025Z,3.50
2022-08-30T11:57:37.625Z,3.53
2022-08-30T12:00:11.971Z,3.42
2022-08-30T12:02:48.659Z,3.30
2022-08-30T12:05:52.180Z,3.50
2022-08-30T12:08:47.313Z,3.30
2022-08-30T12:12:03.902Z,3.50
2022-08-30T12:14:49.132Z,3.33
2022-08-30T12:17:43.078Z,3.20
2022-08-30T12:20:23.026Z,3.70
2022-08-30T12:22:52.352Z,3.42
2022-08-30T12:25:28.544Z,3.30
2022-08-30T12:28:14.810Z,3.22
2022-08-30T12:30:46.879Z,3.38
2022-08-30T12:33:29.039Z,3.53
2022-08-30T12:35:59.500Z,3.58
2022-08-30T12:38:28.339Z,3.22
2022-08-30T12:41:01.447Z,3.30
2022-08-30T12:43:38.814Z,3.40
2022-08-30T12:46:15.095Z,3.63
2022-08-30T12:48:44.682Z,3.70
2022-08-30T12:51:28.367Z,3.53
2022-08-30T12:54:05.939Z,3.60
2022-08-30T12:56:51.705Z,3.30
2022-08-30T12:59:52.812Z,3.70
2022-08-30T13:02:25.093Z,3.40
2022-08-30T13:04:55.740Z,3.33
2022-08-30T13:07:29.781Z,3.42
2022-08-30T13:10:04.962Z,3.72
2022-08-30T13:12:35.009Z,3.40
2022-08-30T13:15:17.623Z,3.70
2022-08-30T13:17:49.285Z,3.22
2022-08-30T13:20:26.804Z,3.53
2022-08-30T13:23:09.137Z,3.67
2022-08-30T13:25:40.551Z,3.75
2022-08-30T13:28:09.299Z,3.40
2022-08-30T13:30:38.533Z,3.55
2022-08-30T13:33:11.364Z,3.33
2022-08-30T13:35:39.392Z,3.90
2022-08-30T13:38:07.331Z,3.53
2022-08-30T13:40:35.659Z,3.78
2022-08-30T13:43:03.876Z,3.70
2022-08-30T13:45:47.327Z,3.50
2022-08-30T13:48:23.646Z,3.60
2022-08-30T13:50:53.445Z,3.60
2022-08-30T13:53:51.871Z,3.78
2022-08-30T13:56:10.140Z,3.80
2022-08-30T13:58:42.188Z,3.60
2022-08-30T14:01:10.422Z,3.45
2022-08-30T14:04:13.304Z,3.22
2022-08-30T14:06:34.110Z,3.65
2022-08-30T14:09:04.543Z,3.58
2022-08-30T14:11:33.080Z,3.42
2022-08-30T14:14:25.149Z,4.00
2022-08-30T14:16:49.570Z,3.75
2022-08-30T14:19:19.464Z,3.47
2022-08-30T14:21:49.156Z,3.33
2022-08-30T14:24:20.019Z,3.92
2022-08-30T14:26:51.533Z,3.90
2022-08-30T14:29:22.798Z,3.60
2022-08-30T14:31:52.277Z,3.47
2022-08-30T14:34:22.984Z,3.50
2022-08-30T14:36:50.865Z,3.33
2022-08-30T14:39:21.306Z,3.33
2022-08-30T14:41:51.945Z,3.50
2022-08-30T14:44:21.677Z,3.80
2022-08-30T14:46:51.080Z,3.63
2022-08-30T14:49:21.292Z,3.42
2022-08-30T14:51:49.663Z,3.88
2022-08-30T14:54:21.733Z,3.05
2022-08-30T14:56:49.605Z,3.20
2022-08-30T14:59:19.002Z,3.35
2022-08-30T15:01:47.377Z,3.30
2022-08-30T15:04:16.383Z,3.20
2022-08-30T15:06:48.097Z,3.13
2022-08-30T15:09:23.097Z,3.10
2022-08-30T15:11:52.546Z,3.10
2022-08-30T15:14:20.654Z,3.38
2022-08-30T15:16:48.540Z,3.20
2022-08-30T15:19:16.648Z,3.13
2022-08-30T15:21:47.649Z,3.40
2022-08-30T15:24:19.774Z,3.25
2022-08-30T15:26:52.981Z,3.45
2022-08-30T15:29:21.831Z,3.28
2022-08-30T15:31:50.194Z,3.45
2022-08-30T15:34:20.649Z,3.60
2022-08-30T15:36:50.459Z,3.30
2022-08-30T15:39:18.716Z,3.15
2022-08-30T15:41:57.174Z,2.90
2022-08-30T15:44:26.837Z,3.20
2022-08-30T15:46:55.456Z,3.45
2022-08-30T15:49:25.222Z,3.28
2022-08-30T15:51:54.836Z,3.83
2022-08-30T15:54:24.516Z,3.15
2022-08-30T15:56:59.480Z,3.40
2022-08-30T15:59:28.105Z,3.35
2022-08-30T16:01:56.258Z,3.50
2022-08-30T16:04:25.611Z,3.42
2022-08-30T16:06:55.405Z,2.92
2022-08-30T16:09:24.883Z,3.20
2022-08-30T16:11:52.884Z,3.10
2022-08-30T16:14:20.792Z,3.10
2022-08-30T16:16:48.719Z,3.40
2022-08-30T16:19:17.011Z,3.30
2022-08-30T16:21:44.946Z,3.00
2022-08-30T16:24:15.710Z,3.13
2022-08-30T16:26:44.765Z,3.42
2022-08-30T16:29:14.193Z,3.10
2022-08-30T16:31:44.894Z,3.28
2022-08-30T16:34:14.025Z,2.90
2022-08-30T16:36:43.207Z,2.75
2022-08-30T16:39:12.816Z,4.00
2022-08-30T16:41:44.339Z,3.10
2022-08-30T16:46:42.690Z,2.90
2022-08-30T16:49:11.692Z,2.92
2022-08-30T16:51:39.675Z,3.33
2022-08-30T16:54:09.017Z,3.50
2022-08-30T16:56:38.060Z,3.47
2022-08-30T16:59:11.306Z,3.17
2022-08-30T17:01:41.349Z,3.40
2022-08-30T17:04:09.854Z,3.40
2022-08-30T17:06:38.158Z,2.90
2022-08-30T17:09:06.728Z,3.03
2022-08-30T17:11:35.799Z,2.90
2022-08-30T17:14:03.974Z,2.80
2022-08-30T17:16:34.959Z,3.10
2022-08-30T17:19:04.296Z,2.90
2022-08-30T17:21:33.191Z,3.08
2022-08-30T17:24:02.527Z,3.10
2022-08-30T17:26:32.324Z,3.20
2022-08-30T17:29:00.579Z,2.70
2022-08-30T17:31:30.545Z,3.00
2022-08-30T17:34:03.226Z,3.17
2022-08-30T17:36:35.207Z,3.15
2022-08-30T17:39:10.992Z,3.22
2022-08-30T17:41:45.221Z,3.00
2022-08-30T17:44:19.031Z,3.45
2022-08-30T17:46:47.254Z,3.58
2022-08-30T17:49:17.021Z,3.00
2022-08-30T17:51:45.748Z,3.10
2022-08-30T17:54:15.737Z,3.90
2022-08-30T17:56:44.485Z,3.50
2022-08-30T17:59:12.462Z,2.90
2022-08-30T18:01:41.822Z,3.00
2022-08-30T18:04:10.945Z,3.30
2022-08-30T18:06:40.460Z,2.80
2022-08-30T18:09:09.679Z,3.42
2022-08-30T18:11:40.704Z,2.95
2022-08-30T18:14:10.932Z,3.22
2022-08-30T18:16:49.689Z,2.90
2022-08-30T18:19:21.987Z,2.85
2022-08-30T18:21:51.772Z,3.33
2022-08-30T18:24:19.945Z,3.00
2022-08-30T18:26:47.819Z,3.00
2022-08-30T18:29:26.017Z,3.67
2022-08-30T18:31:58.436Z,3.13
2022-08-30T18:34:26.257Z,3.85
2022-08-30T18:36:55.599Z,3.45
2022-08-30T18:39:23.544Z,3.33
2022-08-30T18:41:53.098Z,3.47
2022-08-30T18:44:33.128Z,3.58
2022-08-30T18:47:03.729Z,3.90
2022-08-30T18:49:34.657Z,3.75
2022-08-30T18:52:07.407Z,4.15
2022-08-30T18:54:39.473Z,3.95
2022-08-30T18:57:09.919Z,4.25
2022-08-30T18:59:38.301Z,4.13
2022-08-30T19:02:06.937Z,4.72
2022-08-30T19:04:35.596Z,4.40
2022-08-30T19:07:07.400Z,3.80
2022-08-30T19:09:35.446Z,3.57
2022-08-30T19:12:03.714Z,4.45
2022-08-30T19:14:37.180Z,4.03
2022-08-30T19:19:53.643Z,3.97
2022-08-30T19:22:26.838Z,3.25
2022-08-30T19:24:58.254Z,3.30
2022-08-30T19:27:38.033Z,3.50
2022-08-30T19:30:10.940Z,3.45
2022-08-30T19:32:38.931Z,3.30
2022-08-30T19:35:08.016Z,3.35
2022-08-30T19:37:38.073Z,3.28
2022-08-30T19:40:08.288Z,3.28
2022-08-30T19:42:41.825Z,3.28
2022-08-30T19:45:17.711Z,3.13
2022-08-30T19:47:46.648Z,3.05
2022-08-30T19:50:15.648Z,3.08
2022-08-30T19:52:50.972Z,2.95
2022-08-30T19:55:23.819Z,3.08
2022-08-30T19:57:56.146Z,3.08
2022-08-30T20:00:24.154Z,2.97
2022-08-30T20:02:52.438Z,3.13
2022-08-30T20:05:21.318Z,2.72
2022-08-30T20:10:38.803Z,3.25
2022-08-30T20:13:07.100Z,3.10
2022-08-30T20:15:37.189Z,3.20
2022-08-30T20:18:13.533Z,2.85
2022-08-30T20:20:49.830Z,3.35
2022-08-30T20:23:21.668Z,3.00
2022-08-30T20:24:32.324Z,3.80
2022-08-30T20:25:52.195Z,3.15
2022-08-30T20:28:20.593Z,3.22
2022-08-30T20:30:48.617Z,3.20
2022-08-30T20:33:17.135Z,2.85
2022-08-30T20:35:49.098Z,2.70
2022-08-30T20:38:21.972Z,3.10
2022-08-30T20:40:56.814Z,3.20
2022-08-30T20:43:26.981Z,3.10
2022-08-30T20:45:56.175Z,3.70
2022-08-30T20:48:26.111Z,3.10
2022-08-30T20:50:53.954Z,3.25
2022-08-30T20:53:23.210Z,3.25
2022-08-30T20:55:51.195Z,3.22
2022-08-30T20:58:19.247Z,2.90
2022-08-30T21:00:51.033Z,2.97
2022-08-30T21:03:26.010Z,3.40
2022-08-30T21:05:57.123Z,3.13
2022-08-30T21:08:26.969Z,3.50
2022-08-30T21:10:54.982Z,3.22
2022-08-30T21:13:23.202Z,3.10
2022-08-30T21:15:52.616Z,3.83
2022-08-30T21:18:22.958Z,3.33
2022-08-30T21:20:50.772Z,3.25
2022-08-30T21:23:18.617Z,3.08
2022-08-30T21:25:47.819Z,3.35
2022-08-30T21:28:17.229Z,3.00
2022-08-30T21:30:45.746Z,3.92
2022-08-30T21:33:13.739Z,3.10
2022-08-30T21:35:59.003Z,2.83
2022-08-30T21:38:26.962Z,2.97
2022-08-30T21:40:56.393Z,3.25
2022-08-30T21:43:24.288Z,3.20
2022-08-30T21:45:53.584Z,3.03
2022-08-30T21:48:21.577Z,3.08
2022-08-30T21:50:49.533Z,2.95
2022-08-30T21:53:17.507Z,3.28
2022-08-30T21:55:45.849Z,3.22
2022-08-30T21:58:17.537Z,3.10
2022-08-30T22:00:45.485Z,3.30
2022-08-30T22:03:13.658Z,3.25
2022-08-30T22:05:41.982Z,2.90
2022-08-30T22:08:09.879Z,2.95
2022-08-30T22:10:37.824Z,2.90
2022-08-30T22:13:10.067Z,3.20
2022-08-30T22:15:39.933Z,3.55
2022-08-30T22:18:08.294Z,3.33
2022-08-30T22:20:36.124Z,3.15
2022-08-30T22:23:04.722Z,3.22
2022-08-30T22:25:32.611Z,2.97
2022-08-30T22:28:00.453Z,3.28
2022-08-30T22:30:30.236Z,3.05
2022-08-30T22:32:59.849Z,3.08
2022-08-30T22:35:27.739Z,4.03
2022-08-30T22:37:55.555Z,3.20
2022-08-30T22:40:23.646Z,3.20
2022-08-30T22:42:51.552Z,3.30
2022-08-30T22:45:19.621Z,3.25
2022-08-30T22:47:47.930Z,3.80
2022-08-30T22:50:17.239Z,3.00
2022-08-30T22:52:45.099Z,3.20
2022-08-30T22:55:13.041Z,3.10
2022-08-30T22:57:41.580Z,3.20
2022-08-30T23:00:15.073Z,3.10
2022-08-30T23:02:43.892Z,3.33
2022-08-30T23:05:12.637Z,3.22
2022-08-30T23:07:42.244Z,3.50
2022-08-30T23:10:12.216Z,3.53
2022-08-30T23:12:40.823Z,3.30
2022-08-30T23:15:12.125Z,3.33
2022-08-30T23:17:40.177Z,3.22
2022-08-30T23:20:09.426Z,3.30
2022-08-30T23:22:37.399Z,3.05
2022-08-30T23:25:25.452Z,3.10
2022-08-30T23:28:11.710Z,3.25
2022-08-30T23:31:02.853Z,3.10
2022-08-30T23:33:48.239Z,3.47
2022-08-30T23:36:33.946Z,2.92
2022-08-30T23:39:21.315Z,3.10
2022-08-30T23:42:08.037Z,2.97
2022-08-30T23:44:53.167Z,3.00
2022-08-30T23:47:38.306Z,3.08
2022-08-30T23:50:24.713Z,3.17
2022-08-30T23:53:10.235Z,3.10
2022-08-30T23:55:57.663Z,3.33
2022-08-30T23:58:44.011Z,3.15
